createdAt,value
2022-08-05T00:02:08.011Z,63.27
2022-08-05T00:04:37.943Z,63.05
2022-08-05T00:07:26.873Z,62.90
2022-08-05T00:09:53.415Z,65.04
2022-08-05T00:12:21.417Z,65.08
2022-08-05T00:14:48.471Z,64.29
2022-08-05T00:17:18.772Z,65.31
2022-08-05T00:20:02.043Z,64.38
2022-08-05T00:22:29.543Z,64.44
2022-08-05T00:24:57.385Z,65.64
2022-08-05T00:27:28.317Z,66.21
2022-08-05T00:29:56.338Z,66.04
2022-08-05T00:32:22.830Z,66.34
2022-08-05T00:35:04.415Z,65.80
2022-08-05T00:37:51.222Z,67.12
2022-08-05T00:40:27.955Z,67.92
2022-08-05T00:42:59.380Z,68.76
2022-08-05T00:45:38.122Z,69.02
2022-08-05T00:48:13.490Z,68.44
2022-08-05T00:50:44.022Z,71.57
2022-08-05T00:54:00.253Z,70.62
2022-08-05T00:55:59.203Z,69.49
2022-08-05T00:58:27.221Z,69.52
2022-08-05T01:00:54.218Z,69.34
2022-08-05T01:03:22.953Z,69.46
2022-08-05T01:05:54.691Z,69.64
2022-08-05T01:08:40.762Z,70.29
2022-08-05T01:11:21.896Z,71.41
2022-08-05T01:14:09.236Z,71.30
2022-08-05T01:16:44.269Z,71.46
2022-08-05T01:19:46.165Z,71.55
2022-08-05T01:22:29.591Z,71.85
2022-08-05T01:25:40.841Z,72.12
2022-08-05T01:28:26.727Z,72.63
2022-08-05T01:31:18.076Z,72.90
2022-08-05T01:34:01.573Z,72.59
2022-08-05T01:36:32.341Z,73.75
2022-08-05T01:39:01.110Z,73.35
2022-08-05T01:41:32.524Z,73.22
2022-08-05T01:44:00.831Z,72.45
2022-08-05T01:46:42.810Z,73.52
2022-08-05T01:49:24.253Z,73.44
2022-08-05T01:51:54.992Z,73.09
2022-08-05T01:54:25.602Z,73.14
2022-08-05T01:58:09.942Z,73.60
2022-08-05T01:59:47.014Z,74.51
2022-08-05T02:02:15.944Z,74.21
2022-08-05T02:04:46.125Z,74.74
2022-08-05T02:07:16.071Z,74.39
2022-08-05T02:09:48.785Z,74.58
2022-08-05T02:12:22.000Z,74.39
2022-08-05T02:15:05.308Z,74.43
2022-08-05T02:18:31.726Z,74.94
2022-08-05T02:20:59.679Z,74.60
2022-08-05T02:23:33.664Z,74.70
2022-08-05T02:26:04.812Z,74.48
2022-08-05T02:28:41.460Z,74.36
2022-08-05T02:31:13.139Z,74.90
2022-08-05T02:33:48.827Z,74.59
2022-08-05T02:36:27.428Z,75.06
2022-08-05T02:38:56.725Z,75.10
2022-08-05T02:41:28.760Z,75.18
2022-08-05T02:44:13.178Z,75.77
2022-08-05T02:46:44.074Z,75.81
2022-08-05T02:49:36.773Z,75.52
2022-08-05T02:52:07.620Z,75.56
2022-08-05T02:54:36.995Z,75.71
2022-08-05T02:57:10.328Z,75.67
2022-08-05T02:59:55.200Z,75.76
2022-08-05T03:02:27.776Z,75.37
2022-08-05T03:04:57.257Z,75.97
2022-08-05T03:08:00.372Z,75.98
2022-08-05T03:10:15.977Z,75.58
2022-08-05T03:12:51.720Z,75.14
2022-08-05T03:15:18.493Z,75.12
2022-08-05T03:17:44.966Z,75.37
2022-08-05T03:20:11.874Z,75.70
2022-08-05T03:22:44.131Z,75.60
2022-08-05T03:25:33.053Z,75.55
2022-08-05T03:28:08.293Z,75.92
2022-08-05T03:30:35.700Z,76.09
2022-08-05T03:33:04.345Z,75.70
2022-08-05T03:35:41.501Z,75.63
2022-08-05T03:38:11.059Z,75.86
2022-08-05T03:40:45.267Z,75.95
2022-08-05T03:43:58.867Z,76.11
2022-08-05T03:46:02.742Z,76.00
2022-08-05T03:48:29.896Z,76.84
2022-08-05T03:52:35.118Z,76.68
2022-08-05T03:54:58.877Z,77.04
2022-08-05T03:57:16.269Z,76.97
2022-08-05T04:00:01.548Z,76.66
2022-08-05T04:02:37.890Z,76.82
2022-08-05T04:05:09.743Z,76.97
2022-08-05T04:07:57.442Z,76.91
2022-08-05T04:10:27.504Z,76.83
2022-08-05T04:12:54.987Z,76.82
2022-08-05T04:15:24.487Z,76.89
2022-08-05T04:17:57.145Z,76.79
2022-08-05T04:20:24.234Z,76.39
2022-08-05T04:22:50.635Z,76.49
2022-08-05T04:25:17.164Z,76.61
2022-08-05T04:27:57.555Z,76.63
2022-08-05T04:30:26.558Z,75.78
2022-08-05T04:32:53.176Z,75.39
2022-08-05T04:35:20.086Z,75.04
2022-08-05T04:38:02.285Z,75.05
2022-08-05T04:40:44.477Z,74.36
2022-08-05T04:43:17.293Z,74.38
2022-08-05T04:45:49.048Z,74.35
2022-08-05T04:48:27.835Z,72.75
2022-08-05T04:51:02.696Z,72.71
2022-08-05T04:53:33.576Z,72.00
2022-08-05T04:56:32.999Z,72.50
2022-08-05T04:58:48.945Z,72.75
2022-08-05T05:01:15.664Z,71.94
2022-08-05T05:04:00.505Z,72.30
2022-08-05T05:06:36.044Z,72.26
2022-08-05T05:09:16.852Z,72.55
2022-08-05T05:11:55.643Z,72.05
2022-08-05T05:14:27.937Z,71.96
2022-08-05T05:16:58.498Z,71.90
2022-08-05T05:19:27.489Z,70.77
2022-08-05T05:22:23.712Z,70.15
2022-08-05T05:24:56.822Z,69.24
2022-08-05T05:27:45.377Z,68.88
2022-08-05T05:30:29.804Z,69.55
2022-08-05T05:33:00.540Z,69.80
2022-08-05T05:35:27.716Z,69.04
2022-08-05T05:37:59.480Z,68.87
2022-08-05T05:40:28.343Z,68.69
2022-08-05T05:42:55.330Z,68.40
2022-08-05T05:45:23.160Z,68.96
2022-08-05T05:48:05.364Z,69.17
2022-08-05T05:50:35.708Z,68.93
2022-08-05T05:53:22.048Z,68.67
2022-08-05T05:55:52.470Z,68.35
2022-08-05T05:58:31.404Z,67.51
2022-08-05T06:01:02.466Z,67.53
2022-08-05T06:04:01.342Z,67.86
2022-08-05T06:06:30.794Z,67.82
2022-08-05T06:08:58.584Z,67.41
2022-08-05T06:11:25.162Z,67.13
2022-08-05T06:13:55.296Z,67.07
2022-08-05T06:16:29.706Z,65.91
2022-08-05T06:18:59.930Z,65.82
2022-08-05T06:21:37.037Z,66.31
2022-08-05T06:24:06.260Z,66.68
2022-08-05T06:26:37.666Z,66.74
2022-08-05T06:29:06.419Z,66.91
2022-08-05T06:31:51.421Z,65.93
2022-08-05T06:34:19.961Z,63.84
2022-08-05T06:36:56.910Z,62.50
2022-08-05T06:39:27.090Z,61.24
2022-08-05T06:41:56.232Z,58.70
2022-08-05T06:44:25.184Z,60.42
2022-08-05T06:46:52.599Z,61.98
2022-08-05T06:49:21.488Z,57.90
2022-08-05T06:52:07.661Z,54.84
2022-08-05T06:54:54.091Z,52.90
2022-08-05T06:58:03.108Z,52.47
2022-08-05T07:00:07.749Z,51.15
2022-08-05T07:02:46.729Z,51.42
2022-08-05T07:05:18.950Z,53.07
2022-08-05T07:07:48.875Z,55.34
2022-08-05T07:10:16.475Z,55.71
2022-08-05T07:13:02.013Z,58.69
2022-08-05T07:16:00.966Z,59.75
2022-08-05T07:18:31.515Z,62.91
2022-08-05T07:20:58.199Z,62.83
2022-08-05T07:23:31.275Z,62.87
2022-08-05T07:25:58.457Z,62.60
2022-08-05T07:28:25.280Z,63.52
2022-08-05T07:30:52.976Z,63.90
2022-08-05T07:33:37.221Z,63.81
2022-08-05T07:36:21.536Z,64.22
2022-08-05T07:38:48.929Z,62.76
2022-08-05T07:42:14.678Z,61.88
2022-08-05T07:44:19.145Z,61.74
2022-08-05T07:46:48.386Z,61.33
2022-08-05T07:49:15.951Z,62.84
2022-08-05T07:51:53.797Z,64.61
2022-08-05T07:54:31.355Z,66.12
2022-08-05T07:57:16.941Z,67.05
2022-08-05T07:59:49.015Z,69.21
2022-08-05T08:02:17.560Z,70.55
2022-08-05T08:04:48.663Z,71.91
2022-08-05T08:07:16.179Z,73.72
2022-08-05T08:09:44.522Z,74.80
2022-08-05T08:12:35.057Z,75.31
2022-08-05T08:15:03.549Z,76.13
2022-08-05T08:17:31.759Z,76.96
2022-08-05T08:20:10.842Z,76.75
2022-08-05T08:22:50.945Z,77.36
2022-08-05T08:25:18.187Z,76.87
2022-08-05T08:27:53.804Z,76.42
2022-08-05T08:30:32.222Z,77.62
2022-08-05T08:33:04.495Z,77.21
2022-08-05T08:35:41.358Z,77.22
2022-08-05T08:38:11.738Z,78.50
2022-08-05T08:40:46.645Z,77.56
2022-08-05T08:45:16.430Z,77.20
2022-08-05T08:46:06.305Z,78.52
2022-08-05T08:49:03.384Z,77.91
2022-08-05T08:52:03.647Z,77.10
2022-08-05T08:54:14.705Z,77.12
2022-08-05T08:56:47.804Z,76.49
2022-08-05T08:59:19.661Z,76.90
2022-08-05T09:01:57.131Z,77.36
2022-08-05T09:04:30.756Z,77.92
2022-08-05T09:06:58.471Z,78.03
2022-08-05T09:09:26.071Z,78.81
2022-08-05T09:12:14.453Z,78.10
2022-08-05T09:14:58.016Z,78.66
2022-08-05T09:17:42.985Z,79.32
2022-08-05T09:20:36.644Z,80.60
2022-08-05T09:23:19.150Z,79.91
2022-08-05T09:26:02.980Z,80.13
2022-08-05T09:28:33.548Z,79.69
2022-08-05T09:32:38.702Z,78.73
2022-08-05T09:34:00.968Z,78.99
2022-08-05T09:36:56.052Z,77.15
2022-08-05T09:39:41.392Z,78.06
2022-08-05T09:42:23.258Z,76.20
2022-08-05T09:44:52.666Z,78.68
2022-08-05T09:47:25.633Z,78.63
2022-08-05T09:50:01.959Z,80.24
2022-08-05T09:52:34.189Z,79.40
2022-08-05T09:55:57.054Z,80.40
2022-08-05T09:57:54.819Z,79.97
2022-08-05T10:00:25.761Z,82.59
2022-08-05T10:02:54.695Z,83.43
2022-08-05T10:05:24.249Z,83.50
2022-08-05T10:08:36.482Z,82.89
2022-08-05T10:10:48.281Z,83.05
2022-08-05T10:13:43.957Z,84.72
2022-08-05T10:16:37.948Z,82.90
2022-08-05T10:19:19.222Z,83.65
2022-08-05T10:21:50.593Z,84.05
2022-08-05T10:24:19.442Z,81.00
2022-08-05T10:26:54.747Z,81.37
2022-08-05T10:29:23.953Z,82.63
2022-08-05T10:32:53.685Z,81.06
2022-08-05T10:34:57.506Z,80.71
2022-08-05T10:37:37.520Z,80.53
2022-08-05T10:40:49.823Z,76.61
2022-08-05T10:43:35.889Z,72.32
2022-08-05T10:46:07.991Z,73.88
2022-08-05T10:48:53.001Z,72.09
2022-08-05T10:51:29.071Z,67.10
2022-08-05T10:54:01.076Z,61.45
2022-08-05T10:56:31.144Z,57.19
2022-08-05T10:59:12.680Z,54.58
2022-08-05T11:02:14.576Z,53.02
2022-08-05T11:04:56.973Z,52.86
2022-08-05T11:07:33.290Z,50.21
2022-08-05T11:10:22.296Z,48.09
2022-08-05T11:12:55.654Z,47.08
2022-08-05T11:16:01.193Z,47.35
2022-08-05T11:18:33.982Z,43.74
2022-08-05T11:21:06.202Z,44.52
2022-08-05T11:24:03.913Z,43.52
2022-08-05T11:26:40.446Z,43.47
2022-08-05T11:29:40.830Z,42.12
2022-08-05T11:32:25.875Z,41.24
2022-08-05T11:34:54.126Z,41.18
2022-08-05T11:38:30.853Z,39.90
2022-08-05T11:41:03.545Z,40.12
2022-08-05T11:44:05.410Z,42.12
2022-08-05T11:46:36.822Z,43.46
2022-08-05T11:49:06.131Z,45.12
2022-08-05T11:51:44.393Z,43.11
2022-08-05T11:54:33.720Z,43.27
2022-08-05T11:57:08.162Z,42.17
2022-08-05T11:59:50.155Z,41.83
2022-08-05T12:02:29.920Z,41.40
2022-08-05T12:04:59.845Z,39.71
2022-08-05T12:08:04.437Z,37.45
2022-08-05T12:10:19.539Z,39.53
2022-08-05T12:12:46.634Z,39.92
2022-08-05T12:15:34.636Z,38.32
2022-08-05T12:18:10.471Z,38.78
2022-08-05T12:20:38.587Z,39.67
2022-08-05T12:23:11.996Z,43.50
2022-08-05T12:25:56.889Z,41.52
2022-08-05T12:28:33.739Z,42.89
2022-08-05T12:31:02.206Z,40.76
2022-08-05T12:33:37.172Z,42.16
2022-08-05T12:36:08.170Z,44.23
2022-08-05T12:38:39.990Z,42.20
2022-08-05T12:41:13.443Z,43.03
2022-08-05T12:43:57.302Z,45.14
2022-08-05T12:46:29.589Z,47.35
2022-08-05T12:49:13.931Z,47.64
2022-08-05T12:52:14.113Z,46.45
2022-08-05T12:54:45.389Z,45.62
2022-08-05T12:57:13.109Z,43.31
2022-08-05T13:01:58.022Z,41.74
2022-08-05T13:02:41.012Z,43.16
2022-08-05T13:05:08.202Z,45.61
2022-08-05T13:07:59.558Z,46.56
2022-08-05T13:10:26.362Z,47.56
2022-08-05T13:12:58.124Z,46.81
2022-08-05T13:15:41.923Z,45.73
2022-08-05T13:18:19.875Z,47.66
2022-08-05T13:20:47.594Z,48.48
2022-08-05T13:23:16.410Z,46.37
2022-08-05T13:25:52.520Z,45.12
2022-08-05T13:28:26.729Z,46.15
2022-08-05T13:30:53.622Z,47.46
2022-08-05T13:34:21.307Z,48.34
2022-08-05T13:36:09.142Z,50.18
2022-08-05T13:38:41.985Z,50.74
2022-08-05T13:41:09.319Z,50.96
2022-08-05T13:43:45.924Z,51.46
2022-08-05T13:49:12.601Z,52.07
2022-08-05T13:51:41.252Z,51.55
2022-08-05T13:54:11.723Z,53.02
2022-08-05T13:56:45.389Z,53.03
2022-08-05T13:59:20.231Z,53.42
2022-08-05T14:01:59.175Z,52.45
2022-08-05T14:04:51.477Z,52.66
2022-08-05T14:07:26.114Z,52.38
2022-08-05T14:10:19.107Z,51.48
2022-08-05T14:12:56.019Z,52.16
2022-08-05T14:16:06.853Z,52.40
2022-08-05T14:18:15.045Z,51.59
2022-08-05T14:20:47.683Z,50.18
2022-08-05T14:23:19.090Z,51.81
2022-08-05T14:25:54.277Z,53.70
2022-08-05T14:28:26.822Z,52.29
2022-08-05T14:30:53.689Z,52.72
2022-08-05T14:33:23.244Z,53.12
2022-08-05T14:35:51.807Z,52.70
2022-08-05T14:38:31.987Z,53.57
2022-08-05T14:41:00.636Z,54.13
2022-08-05T14:43:59.355Z,55.07
2022-08-05T14:46:13.502Z,55.18
2022-08-05T14:48:39.953Z,55.36
2022-08-05T14:51:06.357Z,56.32
2022-08-05T14:53:34.880Z,56.71
2022-08-05T14:56:11.123Z,58.48
2022-08-05T14:58:38.515Z,58.44
2022-08-05T15:01:16.054Z,58.97
2022-08-05T15:03:43.267Z,58.69
2022-08-05T15:06:15.489Z,59.62
2022-08-05T15:09:01.295Z,59.37
2022-08-05T15:11:52.642Z,59.55
2022-08-05T15:14:34.561Z,60.84
2022-08-05T15:17:09.657Z,61.38
2022-08-05T15:19:40.916Z,62.01
2022-08-05T15:22:15.978Z,62.61
2022-08-05T15:24:42.414Z,62.74
2022-08-05T15:27:08.928Z,63.28
2022-08-05T15:29:42.158Z,63.70
2022-08-05T15:32:08.799Z,64.36
2022-08-05T15:34:35.199Z,64.06
2022-08-05T15:37:05.081Z,65.13
2022-08-05T15:40:59.590Z,64.52
2022-08-05T15:42:56.682Z,64.69
2022-08-05T15:45:07.405Z,64.81
2022-08-05T15:47:36.384Z,64.83
2022-08-05T15:50:03.875Z,65.65
2022-08-05T15:52:53.808Z,65.18
2022-08-05T15:55:24.454Z,65.22
2022-08-05T15:57:51.849Z,65.29
2022-08-05T16:00:25.953Z,65.84
2022-08-05T16:02:59.693Z,65.07
2022-08-05T16:05:28.494Z,64.94
2022-08-05T16:07:55.071Z,65.18
2022-08-05T16:10:25.575Z,65.19
2022-08-05T16:12:53.621Z,65.52
2022-08-05T16:15:24.030Z,64.95
2022-08-05T16:17:58.969Z,65.36
2022-08-05T16:20:25.946Z,66.04
2022-08-05T16:22:54.438Z,66.79
2022-08-05T16:25:20.854Z,67.32
2022-08-05T16:28:05.364Z,67.19
2022-08-05T16:30:34.249Z,67.68
2022-08-05T16:33:02.797Z,67.80
2022-08-05T16:35:33.509Z,68.12
2022-08-05T16:38:15.304Z,68.09
2022-08-05T16:40:55.760Z,68.28
2022-08-05T16:43:27.857Z,67.74
2022-08-05T16:46:05.827Z,67.54
2022-08-05T16:48:37.488Z,67.43
2022-08-05T16:51:09.492Z,67.55
2022-08-05T16:54:02.502Z,68.06
2022-08-05T16:56:25.829Z,68.05
2022-08-05T16:58:52.236Z,68.49
2022-08-05T17:01:19.126Z,68.25
2022-08-05T17:03:46.040Z,68.66
2022-08-05T17:06:12.725Z,69.42
2022-08-05T17:08:52.740Z,69.18
2022-08-05T17:11:20.522Z,69.93
2022-08-05T17:13:50.607Z,70.01
2022-08-05T17:16:32.672Z,69.90
2022-08-05T17:19:00.727Z,69.22
2022-08-05T17:21:35.602Z,69.59
2022-08-05T17:24:08.077Z,69.99
2022-08-05T17:26:46.905Z,70.12
2022-08-05T17:29:14.469Z,70.92
2022-08-05T17:31:56.513Z,74.56
2022-08-05T17:34:29.771Z,76.52
2022-08-05T17:36:56.956Z,76.21
2022-08-05T17:39:24.086Z,77.38
2022-08-05T17:42:19.265Z,80.02
2022-08-05T17:44:50.507Z,79.91
2022-08-05T17:47:22.885Z,80.24
2022-08-05T17:49:52.054Z,79.78
2022-08-05T17:52:30.633Z,81.00
2022-08-05T17:54:57.717Z,81.61
2022-08-05T17:57:24.588Z,82.03
2022-08-05T18:00:03.648Z,82.07
2022-08-05T18:02:32.553Z,82.52
2022-08-05T18:05:02.772Z,81.43
2022-08-05T18:07:32.880Z,79.03
2022-08-05T18:10:10.473Z,79.14
2022-08-05T18:12:37.472Z,79.53
2022-08-05T18:15:04.951Z,79.28
2022-08-05T18:17:59.677Z,80.49
2022-08-05T18:20:19.361Z,81.07
2022-08-05T18:22:57.518Z,81.69
2022-08-05T18:25:25.209Z,81.00
2022-08-05T18:27:59.395Z,81.10
2022-08-05T18:30:29.188Z,83.41
2022-08-05T18:32:59.980Z,81.87
2022-08-05T18:35:49.486Z,82.11
2022-08-05T18:38:16.460Z,82.75
2022-08-05T18:41:56.810Z,82.49
2022-08-05T18:43:38.245Z,81.81
2022-08-05T18:46:10.107Z,79.96
2022-08-05T18:48:41.649Z,78.69
2022-08-05T18:52:06.598Z,77.91
2022-08-05T18:54:13.728Z,76.38
2022-08-05T18:56:40.361Z,77.28
2022-08-05T18:59:43.351Z,77.26
2022-08-05T19:01:57.206Z,77.37
2022-08-05T19:04:25.539Z,79.23
2022-08-05T19:06:53.598Z,77.68
2022-08-05T19:09:20.397Z,77.65
2022-08-05T19:12:00.767Z,78.74
2022-08-05T19:14:44.512Z,75.83
2022-08-05T19:17:16.192Z,76.40
2022-08-05T19:19:46.750Z,76.10
2022-08-05T19:22:17.117Z,75.47
2022-08-05T19:24:56.297Z,74.19
2022-08-05T19:27:23.478Z,75.09
2022-08-05T19:29:50.155Z,74.69
2022-08-05T19:32:16.529Z,76.36
2022-08-05T19:34:54.555Z,76.27
2022-08-05T19:37:34.926Z,76.24
2022-08-05T19:40:10.534Z,74.47
2022-08-05T19:42:38.861Z,74.99
2022-08-05T19:45:07.073Z,75.87
2022-08-05T19:47:37.457Z,77.73
2022-08-05T19:50:05.991Z,74.67
2022-08-05T19:52:32.688Z,75.58
2022-08-05T19:55:06.790Z,75.44
2022-08-05T19:58:06.667Z,75.25
2022-08-05T20:00:34.690Z,74.70
2022-08-05T20:03:01.106Z,75.27
2022-08-05T20:05:49.830Z,74.31
2022-08-05T20:08:17.131Z,74.05
2022-08-05T20:10:43.544Z,75.11
2022-08-05T20:13:10.854Z,75.78
2022-08-05T20:15:52.240Z,75.42
2022-08-05T20:18:33.424Z,75.77
2022-08-05T20:21:02.018Z,74.38
2022-08-05T20:23:40.033Z,74.69
2022-08-05T20:26:20.143Z,75.18
2022-08-05T20:28:48.737Z,75.39
2022-08-05T20:31:16.624Z,75.08
2022-08-05T20:33:44.485Z,75.06
2022-08-05T20:36:11.469Z,74.81
2022-08-05T20:38:40.825Z,75.32
2022-08-05T20:41:24.133Z,76.06
2022-08-05T20:43:59.712Z,75.37
2022-08-05T20:46:29.293Z,76.37
2022-08-05T20:48:55.724Z,76.73
2022-08-05T20:51:22.123Z,77.99
2022-08-05T20:53:56.343Z,78.62
2022-08-05T20:56:28.191Z,79.27
2022-08-05T20:59:00.166Z,78.84
2022-08-05T21:01:40.365Z,79.18
2022-08-05T21:04:09.939Z,79.37
2022-08-05T21:06:45.763Z,79.31
2022-08-05T21:09:14.345Z,79.78
2022-08-05T21:12:06.870Z,79.85
2022-08-05T21:14:28.941Z,79.87
2022-08-05T21:17:01.147Z,80.22
2022-08-05T21:19:29.511Z,79.94
2022-08-05T21:22:14.197Z,80.67
2022-08-05T21:24:40.904Z,79.98
2022-08-05T21:27:09.077Z,79.84
2022-08-05T21:29:40.567Z,80.69
2022-08-05T21:32:07.506Z,80.97
2022-08-05T21:34:35.499Z,79.91
2022-08-05T21:37:02.172Z,81.41
2022-08-05T21:39:29.127Z,81.50
2022-08-05T21:42:01.317Z,81.93
2022-08-05T21:44:29.852Z,82.21
2022-08-05T21:46:58.185Z,82.45
2022-08-05T21:49:48.149Z,82.35
2022-08-05T21:52:21.457Z,83.72
2022-08-05T21:54:51.885Z,83.08
2022-08-05T21:57:31.349Z,84.24
2022-08-05T22:00:10.697Z,84.05
2022-08-05T22:02:38.066Z,84.46
2022-08-05T22:05:04.866Z,84.56
2022-08-05T22:07:39.740Z,84.95
2022-08-05T22:10:26.561Z,85.30
2022-08-05T22:12:54.620Z,85.59
2022-08-05T22:16:01.097Z,85.91
2022-08-05T22:18:11.146Z,86.29
2022-08-05T22:20:39.204Z,86.60
2022-08-05T22:23:25.324Z,86.28
2022-08-05T22:26:37.699Z,86.32
2022-08-05T22:29:05.685Z,86.24
2022-08-05T22:31:44.948Z,86.25
2022-08-05T22:34:12.877Z,85.20
2022-08-05T22:36:46.968Z,84.92
2022-08-05T22:39:19.725Z,84.12
2022-08-05T22:42:11.385Z,84.02
2022-08-05T22:44:34.497Z,84.15
2022-08-05T22:47:00.978Z,84.33
2022-08-05T22:50:22.962Z,84.68
2022-08-05T22:52:30.171Z,84.82
2022-08-05T22:54:59.286Z,85.06
2022-08-05T22:57:26.437Z,85.54
2022-08-05T22:59:54.269Z,85.93
2022-08-05T23:02:28.886Z,86.40
2022-08-05T23:04:57.820Z,86.88
2022-08-05T23:07:28.496Z,86.44
2022-08-05T23:10:01.073Z,85.63
2022-08-05T23:12:32.655Z,85.86
2022-08-05T23:15:01.396Z,86.07
2022-08-05T23:17:35.086Z,85.71
2022-08-05T23:20:16.719Z,85.29
2022-08-05T23:22:48.291Z,84.96
2022-08-05T23:25:17.019Z,83.93
2022-08-05T23:28:03.627Z,83.97
2022-08-05T23:30:40.672Z,84.09
2022-08-05T23:33:16.163Z,83.65
2022-08-05T23:35:49.660Z,83.83
2022-08-05T23:38:16.149Z,83.46
2022-08-05T23:40:49.981Z,83.42
2022-08-05T23:43:25.047Z,83.09
2022-08-05T23:46:05.100Z,82.97
2022-08-05T23:48:46.964Z,82.72
2022-08-05T23:51:28.105Z,82.98
2022-08-05T23:54:00.075Z,82.97
2022-08-05T23:56:27.744Z,83.57
2022-08-05T23:58:54.182Z,83.39
